Time;durP1;ratioP1;P1;durP2;ratioP2;P2;SDS_P1;SDS_P2;PMS_P1;PMS_P2;Temp;Humidity;BMP_temperature;BMP_pressure;BME280_temperature;BME280_humidity;BME280_pressure;Samples;Min_cycle;Max_cycle;Signal;HPM_P1;HPM_P2
2023/12/07 00:00:17;;;;;;;0.35;0.35;;;;;;;;;;5002420;28;20254;-73
2023/12/07 00:02:45;;;;;;;0.10;0.10;;;;;;;;;;5003297;28;20056;-73
2023/12/07 00:05:12;;;;;;;0.10;0.10;;;;;;;;;;4991711;28;20046;-73
2023/12/07 00:07:40;;;;;;;0.15;0.15;;;;;;;;;;5002699;28;20454;-74
2023/12/07 00:10:08;;;;;;;0.60;0.60;;;;;;;;;;5009227;28;20439;-73
2023/12/07 00:12:35;;;;;;;0.22;0.22;;;;;;;;;;5002855;28;20057;-73
2023/12/07 00:15:03;;;;;;;0.08;0.08;;;;;;;;;;4998225;28;20049;-74
2023/12/07 00:17:31;;;;;;;0.63;0.63;;;;;;;;;;4981036;28;20053;-73
2023/12/07 00:19:58;;;;;;;0.10;0.10;;;;;;;;;;4991096;28;20050;-73
2023/12/07 00:22:28;;;;;;;0.10;0.10;;;;;;;;;;5000086;28;20123;-73
2023/12/07 00:24:56;;;;;;;0.10;0.10;;;;;;;;;;4995355;28;20112;-74
2023/12/07 00:27:24;;;;;;;0.10;0.10;;;;;;;;;;5003388;28;20050;-73
2023/12/07 00:29:51;;;;;;;0.10;0.10;;;;;;;;;;5005727;28;20424;-73
2023/12/07 00:32:19;;;;;;;0.10;0.10;;;;;;;;;;5004452;28;20328;-73
2023/12/07 00:34:46;;;;;;;0.10;0.10;;;;;;;;;;4997955;28;20050;-73
2023/12/07 00:37:14;;;;;;;0.10;0.10;;;;;;;;;;4993151;28;20089;-73
2023/12/07 00:39:42;;;;;;;0.15;0.15;;;;;;;;;;4994256;28;20054;-74
2023/12/07 00:42:09;;;;;;;0.10;0.10;;;;;;;;;;4995037;28;20048;-73
2023/12/07 00:44:43;;;;;;;0.08;0.08;;;;;;;;;;5004322;28;20335;-74
2023/12/07 00:47:11;;;;;;;0.10;0.10;;;;;;;;;;5000047;28;20582;-74
2023/12/07 00:49:40;;;;;;;0.10;0.10;;;;;;;;;;5001431;28;20462;-74
2023/12/07 00:52:08;;;;;;;0.10;0.10;;;;;;;;;;4999701;28;20053;-74
2023/12/07 00:54:35;;;;;;;0.10;0.10;;;;;;;;;;5002046;28;20054;-73
2023/12/07 00:57:03;;;;;;;0.17;0.17;;;;;;;;;;5006151;28;20070;-74
2023/12/07 00:59:37;;;;;;;0.00;0.00;;;;;;;;;;5005335;28;20042;-74
2023/12/07 01:02:13;;;;;;;0.10;0.10;;;;;;;;;;5005154;28;20050;-74
2023/12/07 01:04:41;;;;;;;0.20;0.20;;;;;;;;;;5001081;28;20042;-73
2023/12/07 01:07:08;;;;;;;1.35;0.25;;;;;;;;;;5002508;28;20415;-73
2023/12/07 01:09:36;;;;;;;0.10;0.10;;;;;;;;;;5004091;28;20081;-73
2023/12/07 01:12:03;;;;;;;0.10;0.10;;;;;;;;;;5006359;28;20435;-73
2023/12/07 01:14:31;;;;;;;0.00;0.00;;;;;;;;;;5004312;28;20417;-73
2023/12/07 01:16:58;;;;;;;0.10;0.10;;;;;;;;;;5000365;28;20559;-74
2023/12/07 01:19:26;;;;;;;0.10;0.10;;;;;;;;;;5005996;28;20037;-73
2023/12/07 01:21:54;;;;;;;0.00;0.00;;;;;;;;;;5002616;28;20080;-73
2023/12/07 01:24:21;;;;;;;0.10;0.10;;;;;;;;;;5005957;28;20060;-73
2023/12/07 01:26:49;;;;;;;0.10;0.10;;;;;;;;;;5003678;28;20542;-73
2023/12/07 01:29:17;;;;;;;0.30;0.30;;;;;;;;;;5005992;28;20050;-73
2023/12/07 01:31:45;;;;;;;0.10;0.10;;;;;;;;;;5004143;28;20186;-73
2023/12/07 01:34:12;;;;;;;0.10;0.10;;;;;;;;;;5002451;28;20042;-73
2023/12/07 01:36:39;;;;;;;0.10;0.10;;;;;;;;;;4998220;28;20046;-73
2023/12/07 01:39:08;;;;;;;0.40;0.40;;;;;;;;;;5006244;28;20052;-73
2023/12/07 01:41:35;;;;;;;0.10;0.10;;;;;;;;;;5005086;28;20471;-73
2023/12/07 01:44:03;;;;;;;0.28;0.28;;;;;;;;;;5004464;28;20050;-73
2023/12/07 01:46:31;;;;;;;0.20;0.20;;;;;;;;;;5003345;28;20045;-73
2023/12/07 01:48:59;;;;;;;0.38;0.38;;;;;;;;;;5002257;28;20147;-73
2023/12/07 01:51:27;;;;;;;0.10;0.10;;;;;;;;;;5005041;28;20046;-73
2023/12/07 01:53:54;;;;;;;0.10;0.10;;;;;;;;;;5003127;28;20091;-73
2023/12/07 01:56:24;;;;;;;0.10;0.10;;;;;;;;;;5004273;28;20065;-73
2023/12/07 01:58:51;;;;;;;0.10;0.10;;;;;;;;;;5003493;28;20088;-73
2023/12/07 02:01:19;;;;;;;0.10;0.10;;;;;;;;;;4989169;28;20046;-73
2023/12/07 02:03:46;;;;;;;0.10;0.10;;;;;;;;;;5003179;28;20571;-73
2023/12/07 02:06:15;;;;;;;0.10;0.10;;;;;;;;;;4983218;28;20143;-73
2023/12/07 02:08:44;;;;;;;0.00;0.00;;;;;;;;;;5003589;28;20053;-73
2023/12/07 02:11:11;;;;;;;0.10;0.10;;;;;;;;;;5004954;28;20278;-74
2023/12/07 02:13:39;;;;;;;0.10;0.10;;;;;;;;;;5003238;28;20121;-73
2023/12/07 02:16:10;;;;;;;0.10;0.10;;;;;;;;;;5005246;28;20041;-73
2023/12/07 02:18:45;;;;;;;0.10;0.10;;;;;;;;;;5004724;28;20329;-73
2023/12/07 02:21:19;;;;;;;0.10;0.10;;;;;;;;;;5005229;28;20048;-73
2023/12/07 02:23:47;;;;;;;0.10;0.10;;;;;;;;;;4988236;28;20127;-73
2023/12/07 02:26:19;;;;;;;0.10;0.10;;;;;;;;;;4998223;28;20531;-73
2023/12/07 02:28:47;;;;;;;0.77;0.77;;;;;;;;;;4998352;28;20100;-73
2023/12/07 02:31:15;;;;;;;4.38;0.47;;;;;;;;;;4998654;28;20473;-73
2023/12/07 02:33:42;;;;;;;0.13;0.13;;;;;;;;;;4997498;28;20548;-73
2023/12/07 02:36:11;;;;;;;1.00;0.90;;;;;;;;;;5000946;28;20096;-74
2023/12/07 02:38:38;;;;;;;0.10;0.10;;;;;;;;;;5003820;28;20053;-73
2023/12/07 02:41:06;;;;;;;0.10;0.10;;;;;;;;;;4999963;28;20077;-74
2023/12/07 02:43:34;;;;;;;0.05;0.05;;;;;;;;;;5003650;28;20078;-73
2023/12/07 02:46:02;;;;;;;0.10;0.10;;;;;;;;;;5005036;28;20068;-73
2023/12/07 02:48:30;;;;;;;0.10;0.10;;;;;;;;;;5003461;28;20460;-73
2023/12/07 02:50:58;;;;;;;0.00;0.00;;;;;;;;;;5004359;28;20289;-73
2023/12/07 02:53:25;;;;;;;0.10;0.10;;;;;;;;;;4999676;28;20037;-73
2023/12/07 02:55:52;;;;;;;1.88;1.77;;;;;;;;;;5001411;28;20053;-74
2023/12/07 02:58:20;;;;;;;0.00;0.00;;;;;;;;;;5002352;28;20072;-73
2023/12/07 03:00:47;;;;;;;0.10;0.10;;;;;;;;;;4998561;28;20159;-73
2023/12/07 03:03:15;;;;;;;0.10;0.10;;;;;;;;;;5004128;28;20531;-73
2023/12/07 03:05:42;;;;;;;0.10;0.10;;;;;;;;;;5003613;28;20133;-73
2023/12/07 03:08:11;;;;;;;0.10;0.10;;;;;;;;;;5001564;28;20046;-73
2023/12/07 03:10:38;;;;;;;0.00;0.00;;;;;;;;;;5003306;28;20054;-73
2023/12/07 03:13:06;;;;;;;0.38;0.38;;;;;;;;;;5003425;28;20136;-73
2023/12/07 03:15:33;;;;;;;0.00;0.00;;;;;;;;;;5000678;28;20121;-73
2023/12/07 03:18:01;;;;;;;0.10;0.10;;;;;;;;;;5000722;28;20794;-74
2023/12/07 03:20:28;;;;;;;0.10;0.10;;;;;;;;;;5003956;28;20038;-73
2023/12/07 03:22:56;;;;;;;0.00;0.00;;;;;;;;;;5000824;28;20577;-74
2023/12/07 03:25:24;;;;;;;0.85;0.45;;;;;;;;;;5001214;28;20073;-73
2023/12/07 03:27:51;;;;;;;0.10;0.10;;;;;;;;;;5002353;28;20392;-74
2023/12/07 03:30:19;;;;;;;0.10;0.10;;;;;;;;;;5000070;28;20133;-73
2023/12/07 03:32:47;;;;;;;0.32;0.32;;;;;;;;;;5003568;28;20129;-73
2023/12/07 03:35:14;;;;;;;0.10;0.10;;;;;;;;;;5004295;28;20333;-74
2023/12/07 03:37:42;;;;;;;0.20;0.20;;;;;;;;;;5001708;28;20046;-75
2023/12/07 03:40:09;;;;;;;0.10;0.10;;;;;;;;;;5004864;28;20041;-74
2023/12/07 03:42:37;;;;;;;0.10;0.10;;;;;;;;;;4998478;28;20145;-74
2023/12/07 03:45:23;;;;;;;0.10;0.10;;;;;;;;;;5000680;28;20109;-74
2023/12/07 03:47:50;;;;;;;0.30;0.30;;;;;;;;;;5003233;28;20042;-74
2023/12/07 03:50:18;;;;;;;0.10;0.10;;;;;;;;;;5004713;28;20050;-74
2023/12/07 03:52:45;;;;;;;0.10;0.10;;;;;;;;;;5001140;28;20096;-73
2023/12/07 03:55:13;;;;;;;0.10;0.10;;;;;;;;;;5003459;28;20042;-74
2023/12/07 03:57:41;;;;;;;0.10;0.10;;;;;;;;;;4999760;28;20040;-74
2023/12/07 04:00:11;;;;;;;0.10;0.10;;;;;;;;;;5000509;28;20530;-74
2023/12/07 04:02:38;;;;;;;0.03;0.03;;;;;;;;;;5003727;28;20052;-73
2023/12/07 04:05:06;;;;;;;0.15;0.15;;;;;;;;;;5002778;28;20057;-73
2023/12/07 04:07:34;;;;;;;0.10;0.10;;;;;;;;;;5000750;28;20436;-74
2023/12/07 04:10:05;;;;;;;0.10;0.10;;;;;;;;;;5002381;28;20136;-73
2023/12/07 04:12:33;;;;;;;0.10;0.10;;;;;;;;;;5003610;28;20084;-74
2023/12/07 04:15:00;;;;;;;3.65;1.80;;;;;;;;;;5000902;28;20049;-74
2023/12/07 04:17:28;;;;;;;0.00;0.00;;;;;;;;;;5001828;28;20057;-73
2023/12/07 04:19:55;;;;;;;0.10;0.10;;;;;;;;;;4992227;28;20078;-73
2023/12/07 04:22:24;;;;;;;0.00;0.00;;;;;;;;;;4991855;28;20053;-73
2023/12/07 04:24:51;;;;;;;0.20;0.20;;;;;;;;;;5001719;28;20435;-73
2023/12/07 04:27:19;;;;;;;1.17;1.15;;;;;;;;;;5004833;28;20053;-74
2023/12/07 04:29:47;;;;;;;0.20;0.20;;;;;;;;;;5007045;28;20133;-73
2023/12/07 04:32:15;;;;;;;1.70;1.65;;;;;;;;;;5005219;28;20133;-73
2023/12/07 04:34:43;;;;;;;0.25;0.25;;;;;;;;;;5007633;28;20125;-73
2023/12/07 04:37:11;;;;;;;0.10;0.10;;;;;;;;;;5007896;28;20042;-74
2023/12/07 04:39:38;;;;;;;0.10;0.10;;;;;;;;;;5005552;28;20115;-73
2023/12/07 04:42:06;;;;;;;1.48;1.38;;;;;;;;;;5002960;28;20045;-73
2023/12/07 04:44:33;;;;;;;0.10;0.10;;;;;;;;;;5003086;28;20123;-73
2023/12/07 04:47:01;;;;;;;0.10;0.10;;;;;;;;;;5005281;28;20535;-73
2023/12/07 04:49:29;;;;;;;0.32;0.32;;;;;;;;;;5005692;28;20123;-73
2023/12/07 04:51:56;;;;;;;0.10;0.10;;;;;;;;;;5004956;28;20419;-74
2023/12/07 04:54:24;;;;;;;0.10;0.10;;;;;;;;;;5001829;28;20420;-73
2023/12/07 04:56:51;;;;;;;0.10;0.10;;;;;;;;;;4986762;28;20052;-73
2023/12/07 04:59:18;;;;;;;0.10;0.10;;;;;;;;;;5005935;28;20049;-73
2023/12/07 05:01:47;;;;;;;0.10;0.10;;;;;;;;;;5000891;28;20054;-74
2023/12/07 05:04:14;;;;;;;0.40;0.40;;;;;;;;;;5005723;28;20046;-73
2023/12/07 05:06:42;;;;;;;0.10;0.10;;;;;;;;;;5005418;28;20404;-74
2023/12/07 05:09:10;;;;;;;0.10;0.10;;;;;;;;;;5003541;28;20527;-73
2023/12/07 05:11:38;;;;;;;0.40;0.40;;;;;;;;;;5005950;28;20061;-73
2023/12/07 05:14:05;;;;;;;0.13;0.13;;;;;;;;;;5002460;28;20440;-73
2023/12/07 05:16:33;;;;;;;0.10;0.10;;;;;;;;;;5005888;28;20038;-73
2023/12/07 05:19:02;;;;;;;0.20;0.20;;;;;;;;;;5003759;28;20042;-73
2023/12/07 05:21:30;;;;;;;0.47;0.47;;;;;;;;;;5007649;28;20424;-73
2023/12/07 05:23:57;;;;;;;0.35;0.35;;;;;;;;;;5003185;28;20058;-74
2023/12/07 05:26:25;;;;;;;0.10;0.10;;;;;;;;;;4999999;28;20053;-74
2023/12/07 05:28:52;;;;;;;0.38;0.38;;;;;;;;;;5004653;28;20049;-74
2023/12/07 05:31:20;;;;;;;0.10;0.10;;;;;;;;;;4998539;28;20042;-74
2023/12/07 05:33:48;;;;;;;0.10;0.10;;;;;;;;;;5000647;28;20568;-74
2023/12/07 05:36:15;;;;;;;0.25;0.25;;;;;;;;;;5004073;28;20431;-74
2023/12/07 05:38:43;;;;;;;0.38;0.38;;;;;;;;;;4997412;28;20577;-74
2023/12/07 05:41:12;;;;;;;0.77;0.77;;;;;;;;;;5004738;28;20053;-74
2023/12/07 05:43:43;;;;;;;0.47;0.47;;;;;;;;;;5003463;28;20069;-74
2023/12/07 05:46:10;;;;;;;0.47;0.47;;;;;;;;;;5008187;28;20363;-74
2023/12/07 05:48:38;;;;;;;0.30;0.30;;;;;;;;;;5003270;28;20038;-74
2023/12/07 05:51:06;;;;;;;0.10;0.10;;;;;;;;;;5006397;28;20042;-73
2023/12/07 05:53:34;;;;;;;0.50;0.50;;;;;;;;;;5023374;22;20041;-79
2023/12/07 05:56:02;;;;;;;0.20;0.20;;;;;;;;;;5015190;28;20450;-79
2023/12/07 05:58:32;;;;;;;0.10;0.10;;;;;;;;;;5009883;28;20054;-79
2023/12/07 06:01:01;;;;;;;0.10;0.10;;;;;;;;;;4982526;28;20499;-79
2023/12/07 06:03:29;;;;;;;0.10;0.10;;;;;;;;;;5003791;28;20711;-79
2023/12/07 06:05:57;;;;;;;0.38;0.38;;;;;;;;;;4999434;28;20089;-78
2023/12/07 06:08:24;;;;;;;0.22;0.22;;;;;;;;;;5007435;28;20575;-79
2023/12/07 06:10:52;;;;;;;2.58;2.33;;;;;;;;;;5003800;28;20069;-79
2023/12/07 06:13:20;;;;;;;0.10;0.10;;;;;;;;;;4990470;28;20053;-79
2023/12/07 06:15:47;;;;;;;1.35;1.35;;;;;;;;;;4987087;28;20313;-79
2023/12/07 06:18:15;;;;;;;0.20;0.20;;;;;;;;;;5002726;28;20045;-79
2023/12/07 06:20:45;;;;;;;0.25;0.25;;;;;;;;;;5000154;28;20049;-79
2023/12/07 06:23:13;;;;;;;0.20;0.20;;;;;;;;;;4998710;28;20052;-79
2023/12/07 06:25:40;;;;;;;0.10;0.10;;;;;;;;;;5002024;28;20542;-79
2023/12/07 06:28:08;;;;;;;1.13;0.60;;;;;;;;;;5001407;28;20132;-78
2023/12/07 06:30:36;;;;;;;0.73;0.73;;;;;;;;;;4987828;28;20041;-79
2023/12/07 06:33:03;;;;;;;1.17;0.70;;;;;;;;;;5007449;28;20444;-79
2023/12/07 06:35:31;;;;;;;0.98;0.90;;;;;;;;;;4989614;28;20049;-80
2023/12/07 06:37:59;;;;;;;0.80;0.80;;;;;;;;;;4994444;28;20471;-80
2023/12/07 06:40:26;;;;;;;0.10;0.10;;;;;;;;;;5003017;28;20121;-79
2023/12/07 06:42:53;;;;;;;1.23;0.60;;;;;;;;;;4997733;28;20050;-80
2023/12/07 06:45:21;;;;;;;0.55;0.55;;;;;;;;;;5003444;28;20060;-80
2023/12/07 06:47:48;;;;;;;3.08;2.92;;;;;;;;;;4987383;28;20420;-80
2023/12/07 06:50:16;;;;;;;1.75;1.63;;;;;;;;;;4982411;28;20065;-79
2023/12/07 06:52:44;;;;;;;0.98;0.80;;;;;;;;;;4982584;28;20053;-80
2023/12/07 06:58:21;;;;;;;1.83;1.73;;;;;;;;;;5003151;28;20042;-80
2023/12/07 07:00:49;;;;;;;0.10;0.10;;;;;;;;;;4999865;28;20108;-80
2023/12/07 07:03:17;;;;;;;0.82;0.82;;;;;;;;;;4997011;28;20050;-80
2023/12/07 07:05:44;;;;;;;0.13;0.13;;;;;;;;;;4998999;28;20045;-82
2023/12/07 07:08:12;;;;;;;1.05;1.00;;;;;;;;;;5005188;28;20054;-80
2023/12/07 07:10:39;;;;;;;0.10;0.10;;;;;;;;;;5003470;28;20101;-80
2023/12/07 07:13:07;;;;;;;1.65;0.80;;;;;;;;;;4993783;28;20415;-80
2023/12/07 07:15:34;;;;;;;1.60;1.50;;;;;;;;;;5005957;28;20061;-80
2023/12/07 07:18:02;;;;;;;0.32;0.32;;;;;;;;;;4999893;28;20046;-80
2023/12/07 07:20:31;;;;;;;0.15;0.15;;;;;;;;;;4990866;28;20061;-80
2023/12/07 07:22:58;;;;;;;0.38;0.38;;;;;;;;;;5011871;28;20136;-81
2023/12/07 07:25:26;;;;;;;0.20;0.20;;;;;;;;;;5007112;28;20488;-80
2023/12/07 07:27:54;;;;;;;0.13;0.13;;;;;;;;;;4991753;28;20276;-80
2023/12/07 07:30:22;;;;;;;0.80;0.80;;;;;;;;;;5009613;28;20054;-80
2023/12/07 07:32:50;;;;;;;0.95;0.95;;;;;;;;;;5007229;28;20060;-80
2023/12/07 07:35:18;;;;;;;0.60;0.60;;;;;;;;;;5001042;28;20057;-79
2023/12/07 07:37:46;;;;;;;0.22;0.22;;;;;;;;;;4985939;28;20050;-80
2023/12/07 07:40:14;;;;;;;0.52;0.52;;;;;;;;;;4969064;28;20054;-80
2023/12/07 07:43:07;;;;;;;0.52;0.52;;;;;;;;;;4992750;28;20053;-80
2023/12/07 07:51:03;;;;;;;0.65;0.63;;;;;;;;;;4998592;28;20037;-80
2023/12/07 07:53:31;;;;;;;0.10;0.10;;;;;;;;;;4991291;28;20055;-80
2023/12/07 07:56:01;;;;;;;1.77;1.42;;;;;;;;;;4984458;28;20182;-80
2023/12/07 07:58:28;;;;;;;0.70;0.68;;;;;;;;;;4971579;28;20042;-80
2023/12/07 08:00:56;;;;;;;0.35;0.35;;;;;;;;;;4992294;28;20049;-81
2023/12/07 08:03:49;;;;;;;0.60;0.60;;;;;;;;;;4995149;28;20099;-80
2023/12/07 08:06:17;;;;;;;3.75;2.10;;;;;;;;;;4997555;28;20049;-81
2023/12/07 08:08:44;;;;;;;0.20;0.20;;;;;;;;;;5005574;28;20046;-80
2023/12/07 08:11:14;;;;;;;0.13;0.13;;;;;;;;;;4996431;28;20491;-80
2023/12/07 08:13:42;;;;;;;1.25;1.25;;;;;;;;;;4995712;28;20117;-80
2023/12/07 08:16:09;;;;;;;1.48;1.38;;;;;;;;;;5006852;28;20411;-80
2023/12/07 08:19:02;;;;;;;1.15;0.55;;;;;;;;;;4990200;28;20105;-80
2023/12/07 08:21:34;;;;;;;3.13;1.95;;;;;;;;;;5011201;28;20041;-80
2023/12/07 08:24:01;;;;;;;3.10;1.35;;;;;;;;;;4995425;28;20050;-80
2023/12/07 08:26:28;;;;;;;1.45;1.38;;;;;;;;;;5014075;28;20101;-80
2023/12/07 08:28:56;;;;;;;1.20;1.10;;;;;;;;;;5017584;28;20310;-80
2023/12/07 08:31:24;;;;;;;1.27;0.90;;;;;;;;;;5008303;28;20582;-80
2023/12/07 08:33:52;;;;;;;1.27;0.70;;;;;;;;;;5006065;28;20045;-80
2023/12/07 08:36:20;;;;;;;0.38;0.38;;;;;;;;;;5006789;28;20042;-81
2023/12/07 08:38:49;;;;;;;0.57;0.57;;;;;;;;;;4999630;28;20499;-80
2023/12/07 08:41:17;;;;;;;0.45;0.45;;;;;;;;;;5006163;28;20041;-80
2023/12/07 08:43:44;;;;;;;1.60;0.82;;;;;;;;;;5004684;28;20048;-81
2023/12/07 08:46:12;;;;;;;0.40;0.40;;;;;;;;;;5001549;28;20045;-80
2023/12/07 08:48:39;;;;;;;0.85;0.30;;;;;;;;;;5014739;28;20397;-81
2023/12/07 08:51:09;;;;;;;1.90;1.08;;;;;;;;;;4990002;28;20050;-80
2023/12/07 08:53:38;;;;;;;3.17;2.90;;;;;;;;;;5008363;28;20053;-80
2023/12/07 08:56:06;;;;;;;0.93;0.93;;;;;;;;;;5006486;28;20053;-80
2023/12/07 08:58:33;;;;;;;1.38;1.27;;;;;;;;;;5003710;28;20057;-80
2023/12/07 09:01:01;;;;;;;1.65;1.55;;;;;;;;;;5004761;28;20053;-80
2023/12/07 09:03:31;;;;;;;1.00;1.00;;;;;;;;;;4990017;28;20045;-79
2023/12/07 09:06:19;;;;;;;1.38;1.27;;;;;;;;;;5008961;28;20404;-80
2023/12/07 09:09:11;;;;;;;0.00;0.00;;;;;;;;;;5008974;28;20069;-80
2023/12/07 09:11:39;;;;;;;0.10;0.10;;;;;;;;;;5009648;28;20139;-80
2023/12/07 09:14:06;;;;;;;0.75;0.75;;;;;;;;;;5007876;28;20050;-80
2023/12/07 09:16:34;;;;;;;1.75;1.65;;;;;;;;;;4991656;28;20038;-80
2023/12/07 09:19:02;;;;;;;0.95;0.95;;;;;;;;;;5005757;28;20500;-80
2023/12/07 09:21:33;;;;;;;0.25;0.25;;;;;;;;;;5007032;28;20428;-80
2023/12/07 09:24:01;;;;;;;0.73;0.73;;;;;;;;;;4993535;28;20050;-80
2023/12/07 09:26:29;;;;;;;0.25;0.25;;;;;;;;;;5011155;28;20053;-79
2023/12/07 09:28:56;;;;;;;1.00;0.95;;;;;;;;;;5015008;28;20053;-80
2023/12/07 09:31:24;;;;;;;2.92;1.73;;;;;;;;;;4985811;28;20065;-79
2023/12/07 09:33:53;;;;;;;0.30;0.30;;;;;;;;;;4990626;28;20145;-80
2023/12/07 09:36:21;;;;;;;0.30;0.30;;;;;;;;;;5013119;28;20052;-80
2023/12/07 09:38:49;;;;;;;0.10;0.10;;;;;;;;;;5009223;28;20049;-80
2023/12/07 09:41:17;;;;;;;0.60;0.22;;;;;;;;;;5008028;28;20081;-80
2023/12/07 09:43:44;;;;;;;0.47;0.47;;;;;;;;;;4997681;28;20050;-80
2023/12/07 09:46:12;;;;;;;0.68;0.68;;;;;;;;;;5000737;28;20056;-80
2023/12/07 09:48:42;;;;;;;0.70;0.70;;;;;;;;;;4987682;28;20108;-80
2023/12/07 09:51:10;;;;;;;0.95;0.88;;;;;;;;;;4997087;28;20060;-80
2023/12/07 09:54:09;;;;;;;1.02;1.02;;;;;;;;;;5004114;28;20046;-80
2023/12/07 09:56:37;;;;;;;0.45;0.45;;;;;;;;;;4992839;28;20225;-79
2023/12/07 09:59:07;;;;;;;0.10;0.10;;;;;;;;;;5004961;28;20046;-80
2023/12/07 10:01:35;;;;;;;1.55;1.45;;;;;;;;;;4990038;28;20100;-80
2023/12/07 10:04:25;;;;;;;0.10;0.10;;;;;;;;;;5004153;28;20096;-80
2023/12/07 10:06:54;;;;;;;0.20;0.20;;;;;;;;;;5009104;28;20065;-80
2023/12/07 10:09:21;;;;;;;0.40;0.40;;;;;;;;;;5004685;28;20050;-80
2023/12/07 10:12:03;;;;;;;0.73;0.73;;;;;;;;;;5005128;28;20638;-79
2023/12/07 10:14:31;;;;;;;1.05;0.50;;;;;;;;;;5003705;28;20065;-79
2023/12/07 10:17:00;;;;;;;0.20;0.20;;;;;;;;;;5001850;28;20296;-79
2023/12/07 10:23:25;;;;;;;0.28;0.28;;;;;;;;;;4988013;28;20041;-81
2023/12/07 10:30:41;;;;;;;1.88;0.80;;;;;;;;;;5006376;28;20030;-79
2023/12/07 10:33:12;;;;;;;0.40;0.40;;;;;;;;;;4982481;28;20050;-79
2023/12/07 10:35:41;;;;;;;0.40;0.40;;;;;;;;;;5000506;28;20044;-79
2023/12/07 10:38:10;;;;;;;1.33;1.23;;;;;;;;;;4984975;28;20046;-80
2023/12/07 10:40:53;;;;;;;0.50;0.50;;;;;;;;;;5007036;28;20478;-79
2023/12/07 10:43:29;;;;;;;1.08;0.98;;;;;;;;;;4985484;28;20038;-79
2023/12/07 10:46:45;;;;;;;0.20;0.20;;;;;;;;;;4972293;28;20077;-80
2023/12/07 10:49:18;;;;;;;3.13;2.13;;;;;;;;;;5004951;28;20080;-80
2023/12/07 10:52:03;;;;;;;0.90;0.90;;;;;;;;;;4998411;28;20485;-81
2023/12/07 10:55:06;;;;;;;1.38;1.27;;;;;;;;;;4998349;28;20141;-81
2023/12/07 10:58:30;;;;;;;2.80;2.03;;;;;;;;;;4996601;28;20065;-81
2023/12/07 11:00:59;;;;;;;1.40;1.30;;;;;;;;;;4998780;28;20128;-81
2023/12/07 11:03:29;;;;;;;1.48;0.52;;;;;;;;;;5002104;28;20042;-80
2023/12/07 11:05:57;;;;;;;0.80;0.80;;;;;;;;;;4998553;28;20069;-80
2023/12/07 11:08:41;;;;;;;0.10;0.10;;;;;;;;;;4985418;28;20050;-79
2023/12/07 11:11:34;;;;;;;0.30;0.30;;;;;;;;;;4986253;28;20050;-80
2023/12/07 11:14:07;;;;;;;1.65;1.55;;;;;;;;;;5002031;28;20456;-80
2023/12/07 11:16:38;;;;;;;1.83;1.73;;;;;;;;;;4998801;28;20038;-80
2023/12/07 11:19:05;;;;;;;0.10;0.10;;;;;;;;;;5004808;28;20035;-80
2023/12/07 11:21:38;;;;;;;0.65;0.65;;;;;;;;;;4981812;28;20069;-80
2023/12/07 11:24:06;;;;;;;1.48;0.80;;;;;;;;;;5006742;28;20046;-80
2023/12/07 11:26:35;;;;;;;0.47;0.47;;;;;;;;;;5008594;28;20060;-79
2023/12/07 11:29:03;;;;;;;0.80;0.80;;;;;;;;;;5001537;28;20081;-80
2023/12/07 11:31:33;;;;;;;0.35;0.35;;;;;;;;;;5003237;28;20054;-79
2023/12/07 11:34:13;;;;;;;0.40;0.40;;;;;;;;;;4988926;28;20042;-80
2023/12/07 11:36:41;;;;;;;1.00;1.00;;;;;;;;;;5004639;28;20806;-79
2023/12/07 11:39:15;;;;;;;0.13;0.13;;;;;;;;;;5011299;28;20042;-82
2023/12/07 11:41:55;;;;;;;1.60;1.50;;;;;;;;;;5015500;28;20105;-82
2023/12/07 11:44:37;;;;;;;1.15;1.15;;;;;;;;;;4997174;28;20790;-81
2023/12/07 11:47:05;;;;;;;0.28;0.28;;;;;;;;;;5012885;28;20054;-82
2023/12/07 11:49:33;;;;;;;1.38;1.20;;;;;;;;;;5016916;28;20061;-83
2023/12/07 11:52:19;;;;;;;1.45;1.35;;;;;;;;;;4982256;28;20069;-82
2023/12/07 11:54:48;;;;;;;0.88;0.88;;;;;;;;;;4995457;28;20046;-82
2023/12/07 11:57:16;;;;;;;0.95;0.95;;;;;;;;;;5041955;22;20144;-74
2023/12/07 11:59:49;;;;;;;1.67;1.58;;;;;;;;;;5023089;28;20072;-75
2023/12/07 12:02:17;;;;;;;0.35;0.35;;;;;;;;;;5017352;28;20057;-75
2023/12/07 12:04:44;;;;;;;1.52;1.45;;;;;;;;;;5009873;28;20500;-75
2023/12/07 12:07:12;;;;;;;0.52;0.52;;;;;;;;;;4979831;28;20063;-73
2023/12/07 12:09:40;;;;;;;1.08;1.08;;;;;;;;;;4995456;28;20046;-74
2023/12/07 12:12:08;;;;;;;0.82;0.82;;;;;;;;;;5007753;28;20833;-74
2023/12/07 12:14:35;;;;;;;0.98;0.73;;;;;;;;;;5005753;28;20475;-75
2023/12/07 12:17:03;;;;;;;0.47;0.47;;;;;;;;;;5008472;28;20510;-74
2023/12/07 12:19:30;;;;;;;0.10;0.10;;;;;;;;;;5026734;28;20044;-74
2023/12/07 12:22:04;;;;;;;0.60;0.60;;;;;;;;;;5026882;28;20503;-74
2023/12/07 12:24:39;;;;;;;1.27;1.23;;;;;;;;;;5022978;28;20095;-74
2023/12/07 12:27:07;;;;;;;0.47;0.45;;;;;;;;;;5016347;28;20446;-74
2023/12/07 12:29:35;;;;;;;0.10;0.10;;;;;;;;;;5026815;28;20053;-74
2023/12/07 12:32:03;;;;;;;2.25;1.73;;;;;;;;;;5011213;28;20054;-74
2023/12/07 12:34:33;;;;;;;1.48;1.38;;;;;;;;;;5004174;28;20393;-74
2023/12/07 12:37:05;;;;;;;6.70;6.07;;;;;;;;;;5007450;28;20054;-74
2023/12/07 12:39:33;;;;;;;0.55;0.55;;;;;;;;;;5000542;28;20053;-74
2023/12/07 12:42:02;;;;;;;5.90;4.03;;;;;;;;;;5021982;28;20049;-74
2023/12/07 12:44:31;;;;;;;2.35;2.25;;;;;;;;;;5023368;28;20045;-74
2023/12/07 12:47:11;;;;;;;1.55;1.45;;;;;;;;;;5008391;28;20078;-74
2023/12/07 12:49:40;;;;;;;0.40;0.40;;;;;;;;;;5009715;28;20478;-74
2023/12/07 12:52:11;;;;;;;0.30;0.30;;;;;;;;;;4979664;28;20054;-74
2023/12/07 12:54:43;;;;;;;0.20;0.20;;;;;;;;;;4989998;28;20132;-74
2023/12/07 12:57:11;;;;;;;2.55;1.42;;;;;;;;;;4989691;28;20042;-74
2023/12/07 12:59:38;;;;;;;0.88;0.88;;;;;;;;;;4991175;28;20050;-74
2023/12/07 13:02:06;;;;;;;0.68;0.68;;;;;;;;;;4990811;28;20054;-74
2023/12/07 13:04:34;;;;;;;4.45;2.42;;;;;;;;;;4991259;28;20058;-74
2023/12/07 13:07:04;;;;;;;1.42;1.40;;;;;;;;;;4991265;28;20058;-73
2023/12/07 13:09:32;;;;;;;0.30;0.30;;;;;;;;;;4995676;28;20050;-74
2023/12/07 13:12:00;;;;;;;0.80;0.80;;;;;;;;;;5011104;28;20061;-73
2023/12/07 13:14:35;;;;;;;2.67;1.70;;;;;;;;;;5011270;28;20077;-74
2023/12/07 13:17:07;;;;;;;4.38;1.88;;;;;;;;;;5012391;28;20283;-73
2023/12/07 13:19:35;;;;;;;0.20;0.20;;;;;;;;;;4994207;28;20512;-74
2023/12/07 13:22:04;;;;;;;3.08;2.55;;;;;;;;;;4979713;28;20053;-74
2023/12/07 13:24:31;;;;;;;0.20;0.20;;;;;;;;;;5008929;28;20038;-73
2023/12/07 13:27:02;;;;;;;1.10;1.10;;;;;;;;;;5011032;28;20057;-73
2023/12/07 13:29:30;;;;;;;2.05;1.33;;;;;;;;;;5010156;28;20480;-73
2023/12/07 13:32:04;;;;;;;0.80;0.73;;;;;;;;;;5010010;28;20092;-73
2023/12/07 13:34:32;;;;;;;0.68;0.68;;;;;;;;;;5010250;28;20558;-73
2023/12/07 13:37:00;;;;;;;0.10;0.10;;;;;;;;;;5009279;28;20046;-74
2023/12/07 13:39:30;;;;;;;0.30;0.30;;;;;;;;;;5009816;28;20048;-74
2023/12/07 13:42:00;;;;;;;3.50;1.38;;;;;;;;;;5009962;28;20054;-74
2023/12/07 13:44:32;;;;;;;1.48;1.10;;;;;;;;;;5009354;28;20056;-74
2023/12/07 13:47:00;;;;;;;5.55;4.60;;;;;;;;;;5009292;28;20057;-74
2023/12/07 13:49:28;;;;;;;3.05;2.75;;;;;;;;;;5008348;28;20045;-73
2023/12/07 13:52:01;;;;;;;0.47;0.47;;;;;;;;;;5009145;28;20056;-73
2023/12/07 13:54:36;;;;;;;4.40;3.42;;;;;;;;;;5008836;28;20053;-73
2023/12/07 13:57:20;;;;;;;1.02;0.93;;;;;;;;;;5008977;28;20504;-73
2023/12/07 13:59:50;;;;;;;1.02;1.02;;;;;;;;;;4990495;28;20042;-73
2023/12/07 14:02:18;;;;;;;0.10;0.10;;;;;;;;;;5008697;28;20069;-73
2023/12/07 14:04:49;;;;;;;8.77;7.97;;;;;;;;;;5009107;28;20446;-73
2023/12/07 14:07:19;;;;;;;9.27;5.65;;;;;;;;;;5008427;28;20064;-73
2023/12/07 14:09:50;;;;;;;2.22;1.98;;;;;;;;;;5008570;28;20634;-74
2023/12/07 14:12:26;;;;;;;2.00;1.90;;;;;;;;;;5008660;28;20053;-73
2023/12/07 14:14:56;;;;;;;2.67;2.47;;;;;;;;;;5008440;28;20053;-73
2023/12/07 14:17:23;;;;;;;0.93;0.93;;;;;;;;;;5009349;28;20657;-73
2023/12/07 14:19:53;;;;;;;6.68;2.95;;;;;;;;;;5008810;28;20075;-73
2023/12/07 14:22:36;;;;;;;2.20;2.05;;;;;;;;;;5008836;28;20081;-73
2023/12/07 14:25:04;;;;;;;1.08;1.08;;;;;;;;;;5007913;28;20041;-73
2023/12/07 14:27:32;;;;;;;2.05;1.85;;;;;;;;;;5008555;28;20508;-73
2023/12/07 14:30:00;;;;;;;0.77;0.77;;;;;;;;;;5008230;28;20053;-73
2023/12/07 14:32:29;;;;;;;4.97;4.55;;;;;;;;;;5009433;28;20470;-74
2023/12/07 14:34:57;;;;;;;6.00;4.65;;;;;;;;;;5005324;28;20304;-73
2023/12/07 14:37:25;;;;;;;13.75;10.77;;;;;;;;;;4988462;28;20096;-73
2023/12/07 14:39:54;;;;;;;7.82;3.58;;;;;;;;;;4988660;28;20418;-73
2023/12/07 14:42:22;;;;;;;2.25;2.08;;;;;;;;;;4988578;28;20077;-74
2023/12/07 14:44:50;;;;;;;8.50;3.05;;;;;;;;;;5007294;28;20073;-73
2023/12/07 14:47:18;;;;;;;2.03;1.15;;;;;;;;;;5007825;28;20054;-73
2023/12/07 14:49:45;;;;;;;4.25;2.70;;;;;;;;;;5007764;28;20546;-73
2023/12/07 14:52:13;;;;;;;2.70;2.47;;;;;;;;;;5006971;28;20058;-73
2023/12/07 14:54:41;;;;;;;2.58;2.38;;;;;;;;;;4990434;28;20050;-73
2023/12/07 14:57:09;;;;;;;3.45;3.10;;;;;;;;;;5007375;28;20042;-74
2023/12/07 14:59:37;;;;;;;5.13;3.95;;;;;;;;;;5008256;28;20399;-74
2023/12/07 15:02:05;;;;;;;3.58;3.28;;;;;;;;;;4990085;28;20057;-73
2023/12/07 15:04:33;;;;;;;5.20;2.78;;;;;;;;;;5007563;28;20049;-74
2023/12/07 15:07:03;;;;;;;0.77;0.77;;;;;;;;;;5007676;28;20050;-74
2023/12/07 15:09:31;;;;;;;3.30;3.10;;;;;;;;;;5007869;28;20054;-74
2023/12/07 15:11:58;;;;;;;0.90;0.85;;;;;;;;;;5006938;28;20504;-73
2023/12/07 15:14:26;;;;;;;3.97;3.13;;;;;;;;;;5007354;28;20046;-73